Terminal Aerodrome Forecast
Issued by NWS

Home | Current Version | Previous Version | Text Only | Print | Product List | Glossary On
Versions: 1 2 3 4 5 6 7 8 9 10 11 12 13 14 15 16
000
FTUS44 KEPZ 121700
TAFDMN
TAF
KDMN 121736Z 1218/1318 09010KT P6SM FEW080 FEW120 SCT250
     FM122300 11007KT P6SM VCTS SCT080CB SCT250
     FM130500 08010KT P6SM SCT100 BKN250
     FM131000 VRB05KT P6SM FEW120 SCT250=

USA.gov is the U.S. government's official web portal to all federal, state and local government web resources and services.